Lebanon, NH

3:44 AM EST on December 20, 2014 (GMT -0500)
Daisy Hill | Change Station
CLOSE
Current Station
Personal Weather Station
Location: Lebanon, NH
Elevation: 1038 ft
Nearby Weather Stations

Elev 1038 ft 43.61 °N, 72.24 °W | Updated 1 second ago

Partly Cloudy
Partly Cloudy
15.6 °F
Feels Like 16 °F
N
0.0
Wind Variable Wind from North
Gusts 0.0 mph

Today
High -- | Low -- °F
--% Chance of Precip.
Yesterday
High -- | Low -- °F
Precip. -- in
7:18 AM 4:14 PM
Waning Crescent, 4% visible
Pressure 30.26 in
Visibility 10.0 miles
Clouds Few 1700 ft
Windchill 16 °F
Dew Point 12 °F
Humidity 84%
Rainfall 0.00 in
Snow Depth Not available.
UV 0 out of 12
Pollen .10 out of 12
Air Quality Not available.
Flu Activity Not available.
METAR KLEB 200753Z AUTO 32003KT 10SM FEW017 M06/M10 A3022 RMK AO2 SLP246 T10611100

More Conditions Fewer Conditions

Pressure 30.26 in
Visibility 10.0 miles
Clouds Few 1700 ft
Windchill 16 °F
Dew Point 12 °F
Humidity 84%
Rainfall 0.00 in
Snow Depth Not available.
UV 0 out of 12
Pollen .10 out of 12
Air Quality Not available.
Flu Activity Not available.
METAR KLEB 200753Z AUTO 32003KT 10SM FEW017 M06/M10 A3022 RMK AO2 SLP246 T10611100

More Conditions Fewer Conditions

10-Day Weather Forecast

Almanac

Astronomy

Dec. 20, 2014 Rise Set
Actual Time
Civil Twilight
Nautical Twilight
Astronomical Twilight
Moon
Length of Visible Light
Length of Day
Tomorrow will be .
, % of the Moon is Illuminated

Today's Extremes

State Highs State Lows

Community

WunderPhotos

Upload Photos

1,779,146 photos uploaded!

WunderBlogs® & News

Nearby

Air Quality

  Air Quality AQ Index Pollutant
Not available.

Snow Depth

Station Depth Elevation

Earthquake Activity

City Distance Mag. Time & Date
Minimum magnitude displayed is 2.5.

Coastal Water Temperatures

Place Temperature

Nearby Weather Stations